Alango, Minnesota
Current Conditions -  °F | °C
As of 5:54 AM on Wednesday 28 Jan 2015 (Local Time) from KCQM Reporting Station
Overcast Overcast  
Wind Chill: 18°   Ceiling: 900
Heat Index: 25°   Visibility: 10mi
Dew Point: 21°   Wind: 6mph
Humidity: 86%   Direction: 160°SSE
Pressure: 29.96"   Gusts: NA
Location:  47.7453°N, 92.7634°W
Report Text: KCQM 281154Z AUTO 16005KT 10SM OVC009 M04/M06 A2996 RMK AO2
Loading
Personal Weather Stations






























Interactive Weather Map New forecast layout! Learn more

10-Day Weather Forecast

Advertisements
Track Severe Weather on mobile